• Join FlightAware (Why Join?)
  • Login
  • US Flag 
10:15AM EDT


 

Airport Tracker/Info


-or-


 

Live Flight TrackerFlight Track Log ✈ ACA831 ✈ 25-Jun-2013 ✈ LSGG / GVA - CYUL

Flight Track Log - Related Links

Times and Time Zones

All times are in EDT time to prevent confusion due to time zone crossing. See the ACA831 flight status page for this flight to view local times or setup timezone preferences in your user account.

Time Position Orientation Groundspeed Altitude Reporting Facility
EDT Latitude Longitude Course Direction KTS MPH feet Rate Location/Type
06:36AM 46.2330 6.1050 225° Southwest 6 7  Level FlightAware
06:36AM 46.2320 6.1040 215° Southwest 6 7 180 Level FlightAware
06:37AM 46.2320 6.1030 270° West 5 6 180 Level FlightAware
06:37AM 46.2310 6.1020 215° Southwest 8 9 180 Level FlightAware
06:38AM 46.2310 6.1010 270° West 7 8 180 Level FlightAware
06:38AM 46.2300 6.1000 215° Southwest 8 9 180 Level FlightAware
06:39AM 46.2290 6.0990 215° Southwest 10 12 180 Level FlightAware
06:39AM 46.2280 6.0980 215° Southwest 12 14 240 Level FlightAware
06:40AM 46.2270 6.0970 215° Southwest 8 9 240 Level FlightAware
06:40AM 46.2270 6.0950 270° West 8 9 240 Level FlightAware
06:41AM 46.2260 6.0940 215° Southwest 5 6 240 Level FlightAware
06:43AM 46.3273 5.8515 296° West  Level FlightAware Approximate
06:44AM 46.3820 5.7068 301° West  Level FlightAware Approximate
06:44AM 46.2250 6.0930 301° West 3 3  Level FlightAware
06:46AM 46.3256 5.8566 296° West  Level FlightAware Approximate
06:46AM 46.2260 6.0920 296° West 2 2  Level FlightAware
06:46AM 46.2270 6.0920 360° North 17 20 1,440 Level FlightAware
06:47AM 46.2380 6.1090 47° Northeast 165 190 2,100 Level FlightAware
06:47AM 46.2520 6.1310 47° Northeast 170 196 2,100 3,900 Climbing FlightAware
06:48AM 46.2590 6.1400 42° Northeast 169 194 2,600 2,400 Climbing FlightAware
06:48AM 46.2770 6.1680 47° Northeast 179 206 3,900 2,280 Climbing FlightAware
06:48AM 46.2930 6.1910 45° Northeast 191 220 4,700 1,500 Climbing FlightAware
06:49AM 46.3030 6.2060 46° Northeast 215 247 4,900 1,560 Climbing FlightAware
06:49AM 46.3260 6.2400 46° Northeast 240 276 5,900 2,040 Climbing FlightAware
06:50AM 46.3420 6.2640 46° Northeast 260 299 6,600 2,460 Climbing FlightAware
06:50AM 46.3740 6.3020 39° Northeast 265 305 8,200 2,880 Climbing FlightAware
06:50AM 46.3880 6.3050 North 274 315 8,800 3,000 Climbing FlightAware
06:51AM 46.4220 6.2800 333° Northwest 278 320 10,200 2,220 Climbing FlightAware
06:51AM 46.4540 6.2150 306° West 318 366 11,400 1,620 Climbing FlightAware
06:52AM 46.4900 6.1400 305° West 351 404 12,400 1,800 Climbing FlightAware
06:53AM 46.5350 6.0480 305° West 373 429 14,100 2,400 Climbing FlightAware
06:54AM 46.5800 5.9560 305° West 389 448 16,000 2,520 Climbing FlightAware
06:54AM 46.6180 5.8790 306° West 394 453 17,500 2,460 Climbing FlightAware
06:55AM 46.6700 5.7720 305° West 401 461 19,500 2,400 Climbing FlightAware
06:56AM 46.7130 5.6830 305° West 407 468 20,900 2,040 Climbing FlightAware
06:56AM 46.7630 5.5810 306° West 413 475 22,400 1,920 Climbing FlightAware
06:57AM 46.8160 5.5040 315° West 419 482 23,600 1,800 Climbing FlightAware
06:58AM 46.8870 5.4210 321° Northwest 425 489 25,000 1,740 Climbing FlightAware
06:59AM 46.9470 5.3500 321° Northwest 431 496 26,100 1,440 Climbing FlightAware
06:59AM 47.0080 5.2790 322° Northwest 439 505 26,900 1,620 Climbing FlightAware
07:00AM 47.0790 5.1960 321° Northwest 436 502 28,400 1,800 Climbing FlightAware
07:01AM 47.1430 5.1190 321° Northwest 437 503 29,500 1,500 Climbing FlightAware
07:01AM 47.2100 5.0400 321° Northwest 441 507 30,500 1,500 Climbing FlightAware
07:02AM 47.2730 4.9650 321° Northwest 438 504 31,600 1,620 Climbing FlightAware
07:03AM 47.3420 4.8820 321° Northwest 434 499 32,800 1,380 Climbing FlightAware
07:03AM 47.4100 4.8020 321° Northwest 435 501 33,600 780 Climbing FlightAware
07:04AM 47.4770 4.7210 321° Northwest 441 507 34,000 300 Climbing FlightAware
07:05AM 47.5340 4.6520 321° Northwest 439 505 34,000  Level FlightAware
07:06AM 47.6060 4.5650 321° Northwest 437 503 34,000  Level FlightAware
07:06AM 47.6760 4.4800 321° Northwest 437 503 34,000  Level FlightAware
07:07AM 47.7280 4.4160 320° Northwest 437 503 34,000  Level FlightAware
07:08AM 47.8000 4.3290 321° Northwest 438 504 34,000  Level FlightAware
07:08AM 47.8670 4.2470 321° Northwest 439 505 34,000  Level FlightAware
07:09AM 47.9330 4.1650 320° Northwest 440 506 34,000  Level FlightAware
07:10AM 48.0050 4.0760 320° Northwest 441 507 34,000  Level FlightAware
07:10AM 48.0630 4.0040 320° Northwest 441 507 34,000  Level FlightAware
07:11AM 48.1180 3.9360 320° Northwest 442 509 34,000  Level FlightAware
07:12AM 48.1890 3.8490 321° Northwest 442 509 34,000  Level FlightAware
07:12AM 48.2310 3.8060 326° Northwest 443 510 34,000  Level FlightAware
07:13AM 48.3160 3.7360 331° Northwest 444 511 34,000  Level FlightAware
07:14AM 48.3850 3.6820 333° Northwest 444 511 34,000  Level FlightAware
07:14AM 48.4520 3.6280 332° Northwest 444 511 34,000  Level FlightAware
07:15AM 48.5350 3.5620 332° Northwest 444 511 34,000  Level FlightAware
07:16AM 48.6140 3.4990 332° Northwest 443 510 34,000  Level FlightAware
07:16AM 48.6800 3.4460 332° Northwest 443 510 34,000  Level FlightAware
07:17AM 48.7690 3.3750 332° Northwest 442 509 34,000  Level FlightAware
07:18AM 48.8330 3.3230 332° Northwest 442 509 34,000  Level FlightAware
07:19AM 48.9240 3.2490 332° Northwest 441 507 34,000  Level FlightAware
07:19AM 48.9900 3.1950 332° Northwest 441 507 34,000  Level FlightAware
07:20AM 49.0630 3.1360 332° Northwest 439 505 34,000  Level FlightAware
07:21AM 49.1490 3.0640 331° Northwest 437 503 34,000  Level FlightAware
07:21AM 49.2210 3.0050 332° Northwest 436 502 34,000  Level FlightAware
07:22AM 49.2980 2.9420 332° Northwest 436 502 34,000  Level FlightAware
07:23AM 49.3610 2.8890 331° Northwest 435 501 34,000  Level FlightAware
07:23AM 49.4340 2.8280 331° Northwest 436 502 34,000  Level FlightAware
07:24AM 49.5220 2.7540 331° Northwest 436 502 34,000  Level FlightAware
07:25AM 49.5930 2.6950 332° Northwest 437 503 34,000  Level FlightAware
07:25AM 49.6640 2.6350 331° Northwest 438 504 34,000  Level FlightAware
07:26AM 49.7450 2.5660 331° Northwest 439 505 34,000  Level FlightAware
07:27AM 49.8090 2.5120 331° Northwest 440 506 34,000  Level FlightAware
07:27AM 49.8198 2.5026 331° Northwest 466 536 34,000  Level FlightAware UK
07:28AM 49.8940 2.4390 331° Northwest 441 507 34,000  Level FlightAware
07:28AM 49.9600 2.3830 331° Northwest 442 509 34,000  Level FlightAware
07:29AM 50.0450 2.3100 331° Northwest 443 510 34,000  Level FlightAware
07:30AM 50.1093 2.2546 331° Northwest 470 541 34,000  Level FlightAware UK
07:30AM 50.1190 2.2460 331° Northwest 444 511 34,000  Level FlightAware
07:30AM 50.1870 2.1870 331° Northwest 444 511 34,000  Level FlightAware
07:31AM 50.2711 2.1148 331° Northwest 470 541 34,000  Level FlightAware UK
07:31AM 50.2730 2.1130 331° Northwest 444 511 34,000  Level FlightAware
07:32AM 50.3410 2.0540 331° Northwest 444 511 34,000  Level FlightAware
07:32AM 50.4120 1.9760 325° Northwest 444 511 34,000  Level FlightAware
07:33AM 50.4770 1.8960 322° Northwest 442 509 34,000  Level FlightAware
07:34AM 50.5407 1.8156 322° Northwest 472 543 34,000  Level FlightAware UK
07:34AM 50.5390 1.8180 322° Northwest 441 507 34,000  Level FlightAware
07:35AM 50.6100 1.7270 321° Northwest 441 507 34,000  Level FlightAware
07:35AM 50.6820 1.6370 322° Northwest 440 506 34,000  Level FlightAware
07:36AM 50.7460 1.5550 322° Northwest 440 506 34,000 -180 Level FlightAware
07:36AM 50.7496 1.5508 322° Northwest 466 536 33,900  Descending FlightAware UK
07:37AM 50.8020 1.4840 321° Northwest 440 506 34,000  Climbing FlightAware
07:37AM 50.8723 1.3940 321° Northwest 466 536 33,900  Descending FlightAware UK
07:37AM 50.8710 1.3960 321° Northwest 440 506 34,000 120 Climbing FlightAware
07:38AM 50.9410 1.3060 321° Northwest 441 507 34,000  Level FlightAware
07:39AM 51.0140 1.2120 321° Northwest 442 509 34,000  Level FlightAware
07:40AM 51.0770 1.1300 321° Northwest 442 509 34,000  Level FlightAware
07:40AM 51.1467 1.0396 321° Northwest 443 510 34,000  Level FlightAware ADS-B
07:41AM 51.1973 0.9737 321° Northwest 443 510 34,000  Level FlightAware ADS-B
07:41AM 51.2451 0.9111 321° Northwest 443 510 34,000  Level FlightAware ADS-B
07:42AM 51.2928 0.8485 321° Northwest 443 510 34,000  Level FlightAware ADS-B
07:42AM 51.3415 0.7845 321° Northwest 444 511 34,000  Level FlightAware ADS-B
07:43AM 51.3896 0.7212 321° Northwest 445 512 34,000  Level FlightAware ADS-B
07:43AM 51.4378 0.6575 321° Northwest 445 512 34,000  Level FlightAware ADS-B
07:44AM 51.4854 0.5942 320° Northwest 443 510 34,000  Level FlightAware ADS-B
07:44AM 51.5331 0.5308 320° Northwest 442 509 34,000  Level FlightAware ADS-B
07:45AM 51.5810 0.4670 320° Northwest 442 509 34,000  Level FlightAware ADS-B
07:45AM 51.6336 0.3966 320° Northwest 442 509 34,000  Level FlightAware ADS-B
07:46AM 51.6812 0.3327 320° Northwest 441 507 34,000  Level FlightAware ADS-B
07:46AM 51.7291 0.2683 320° Northwest 441 507 34,000  Level FlightAware ADS-B
07:47AM 51.7763 0.2048 320° Northwest 441 507 34,000  Level FlightAware ADS-B
07:47AM 51.8236 0.1407 320° Northwest 440 506 34,000  Level FlightAware ADS-B
07:48AM 51.8703 0.0773 320° Northwest 441 507 34,000  Level FlightAware ADS-B
07:48AM 51.9190 0.0113 320° Northwest 442 509 34,000  Level FlightAware ADS-B
07:49AM 51.9679 -0.0536 321° Northwest 442 509 34,000  Level FlightAware ADS-B
07:49AM 52.0206 -0.1248 320° Northwest 443 510 34,000  Level FlightAware ADS-B
07:50AM 52.0686 -0.1884 321° Northwest 443 510 34,000  Level FlightAware ADS-B
07:51AM 52.1170 -0.2528 321° Northwest 443 510 34,000  Level FlightAware ADS-B
07:51AM 52.1656 -0.3176 321° Northwest 443 510 34,000  Level FlightAware ADS-B
07:52AM 52.2151 -0.3842 321° Northwest 444 511 34,000  Level FlightAware ADS-B
07:52AM 52.2651 -0.4507 321° Northwest 444 511 34,000  Level FlightAware ADS-B
07:53AM 52.3128 -0.5141 321° Northwest 444 511 34,000  Level FlightAware ADS-B
07:53AM 52.3606 -0.5778 321° Northwest 445 512 34,000  Level FlightAware ADS-B
07:54AM 52.4111 -0.6464 320° Northwest 444 511 34,000  Level FlightAware ADS-B
07:54AM 52.4628 -0.7214 319° Northwest 444 511 34,000  Level FlightAware ADS-B
07:55AM 52.5104 -0.7909 318° Northwest 444 511 34,000  Level FlightAware ADS-B
07:55AM 52.5575 -0.8599 318° Northwest 444 511 34,000  Level FlightAware ADS-B
07:56AM 52.6057 -0.9305 318° Northwest 444 511 34,000  Level FlightAware ADS-B
07:56AM 52.6531 -1.0005 318° Northwest 444 511 34,000  Level FlightAware ADS-B
07:57AM 52.7400 -1.1280 318° Northwest 443 510 34,000  Level FlightAware
07:58AM 52.8060 -1.2250 318° Northwest 442 509 34,000  Level FlightAware
07:59AM 52.8690 -1.3180 318° Northwest 441 507 34,000  Level FlightAware
07:59AM 52.9319 -1.4102 319° Northwest 440 506 34,000  Level FlightAware ADS-B
08:00AM 52.9834 -1.4861 318° Northwest 439 505 34,000  Level FlightAware ADS-B
08:01AM 53.0610 -1.6020 318° Northwest 437 503 34,000  Level FlightAware
08:01AM 53.1215 -1.6916 318° Northwest 438 504 34,000  Level FlightAware ADS-B
08:02AM 53.1672 -1.7599 318° Northwest 468 539 34,000  Level FlightAware UK
08:02AM 53.1924 -1.8031 318° Northwest 435 501 34,000  Level FlightAware ADS-B
08:03AM 53.2400 -1.9100 307° West 433 498 34,000  Level FlightAware
08:04AM 53.2820 -2.0160 304° West 434 499 34,000  Level FlightAware
08:04AM 53.3310 -2.1410 303° West 434 499 34,000  Level FlightAware
08:05AM 53.3730 -2.2510 303° West 434 499 34,000  Level FlightAware
08:06AM 53.4170 -2.3660 303° West 433 498 34,000  Level FlightAware
08:06AM 53.4650 -2.4930 302° West 433 498 34,000  Level FlightAware
08:07AM 53.5080 -2.6060 303° West 432 497 34,000  Level FlightAware
08:08AM 53.5580 -2.7360 303° West 432 497 34,000  Level FlightAware
08:08AM 53.6020 -2.8520 303° West 431 496 34,000  Level FlightAware
08:09AM 53.6490 -2.9780 302° West 432 497 34,000  Level FlightAware
08:10AM 53.6850 -3.0790 301° West 432 497 34,000  Level FlightAware
08:10AM 53.7224 -3.1857 301° West 462 532 34,000  Level FlightAware UK
08:10AM 53.7260 -3.1950 301° West 433 498 34,000  Level FlightAware
08:11AM 53.7712 -3.3244 301° West 462 532 34,000  Level FlightAware UK
08:11AM 53.7860 -3.3660 301° West 434 499 34,000  Level FlightAware
08:12AM 53.8280 -3.4860 301° West 434 499 34,000  Level FlightAware
08:13AM 53.8730 -3.6150 301° West 433 498 34,000 420 Level FlightAware
08:13AM 53.9090 -3.7190 300° West 432 497 34,600 960 Climbing FlightAware
08:14AM 53.9530 -3.8460 301° West 424 488 35,300 900 Climbing FlightAware
08:15AM 53.9960 -3.9730 300° West 419 482 36,000 480 Climbing FlightAware
08:16AM 54.0350 -4.0871 300° West 456 525 36,000  Level FlightAware UK
08:16AM 54.0490 -4.1290 300° West 430 495 36,000  Level FlightAware
08:16AM 54.0828 -4.2283 300° West 462 532 36,000  Level FlightAware UK
08:16AM 54.0890 -4.2480 300° West 439 505 36,000  Level FlightAware
08:17AM 54.1350 -4.3850 300° West 442 509 36,000  Level FlightAware
08:18AM 54.1800 -4.5170 300° West 440 506 36,000  Level FlightAware
08:19AM 54.2230 -4.6480 299° West 437 503 36,000  Level FlightAware
08:19AM 54.2630 -4.7680 300° West 436 502 36,000  Level FlightAware
08:20AM 54.3150 -4.9240 300° West 435 501 36,000  Level FlightAware
08:21AM 54.3582 -5.0563 300° West 468 539 36,000  Level FlightAware UK
08:21AM 54.3610 -5.0660 300° West 435 501 36,000  Level FlightAware
08:22AM 54.4020 -5.1920 299° West 432 497 36,000  Level FlightAware
08:22AM 54.4370 -5.2990 299° West 413 475 36,000  Level FlightAware
08:23AM 54.4740 -5.4150 299° West 402 463 36,000  Level FlightAware
08:24AM 54.5100 -5.5240 300° West 391 450 36,000 -120 Level FlightAware
08:24AM 54.5501 -5.6509 300° West 432 497 35,900  Descending FlightAware UK
08:24AM 54.5480 -5.6450 300° West 393 452 36,000 180 Climbing FlightAware
08:25AM 54.5764 -5.7332 300° West 436 502 36,000  Level FlightAware UK
08:25AM 54.5890 -5.7720 300° West 397 457 36,000  Level FlightAware
08:26AM 54.6220 -5.8770 299° West 398 458 36,000  Level FlightAware
08:26AM 54.6558 -5.9839 299° West 442 509 36,000  Level FlightAware UK
08:27AM 54.6580 -5.9900 299° West 401 461 36,000  Level FlightAware
08:27AM 54.7020 -6.1320 298° West 404 465 36,000  Level FlightAware
08:28AM 54.7360 -6.2400 299° West 405 466 36,000  Level FlightAware
08:29AM 54.7669 -6.3416 299° West 448 516 36,000  Level FlightAware UK
08:29AM 54.7690 -6.3480 299° West 405 466 36,000  Level FlightAware
08:29AM 54.8060 -6.4660 299° West 406 467 36,000  Level FlightAware
08:30AM 54.8420 -6.5830 299° West 405 466 36,000  Level FlightAware
08:30AM 54.8464 -6.5979 299° West 448 516 36,000  Level FlightAware UK
08:31AM 54.8722 -6.6835 299° West 442 509 36,000  Level FlightAware UK
08:31AM 54.8820 -6.7140 299° West 402 463 36,000  Level FlightAware
08:31AM 54.9140 -6.8190 299° West 402 463 36,000  Level FlightAware
08:32AM 54.9243 -6.8534 299° West 442 509 36,000  Level FlightAware UK
08:32AM 54.9501 -6.9386 299° West 442 509 36,000  Level FlightAware UK
08:32AM 54.9530 -6.9500 299° West 401 461 36,000  Level FlightAware
08:33AM 54.9890 -7.0680 298° West 399 459 36,000  Level FlightAware
08:34AM 55.0265 -7.1932 298° West 440 506 36,000  Level FlightAware UK
08:34AM 55.0400 -7.2370 298° West 394 453 36,000  Level FlightAware
08:34AM 55.0670 -7.3300 298° West 393 452 36,000  Level FlightAware
08:35AM 55.0762 -7.3611 298° West 436 502 36,000  Level FlightAware UK
08:35AM 55.1059 -7.4607 298° West 430 495 36,000  Level FlightAware UK
08:35AM 55.1080 -7.4680 298° West 382 440 36,000  Level FlightAware
08:36AM 55.1400 -7.5770 297° West 372 428 36,000  Level FlightAware
08:37AM 55.1710 -7.6830 297° West 368 423 36,000 -180 Level FlightAware
08:37AM 55.1772 -7.7026 297° West 418 481 35,900 -180 Descending FlightAware UK
08:37AM 55.2005 -7.7823 297° West 416 479 35,900 120 Level FlightAware UK
08:37AM 55.2060 -7.8030 297° West 365 420 36,000 60 Climbing FlightAware
08:38AM 55.2410 -7.9220 297° West 364 419 36,000  Level FlightAware
08:39AM 55.2680 -8.0140 297° West 365 420 36,000  Level FlightAware
08:39AM 55.2696 -8.0208 297° West 416 479 36,000 -240 Level FlightAware UK
08:39AM 55.2926 -8.1006 297° West 414 476 35,900  Descending FlightAware UK
08:39AM 55.3030 -8.1360 297° West 369 425 36,000 60 Climbing FlightAware
08:40AM 55.3340 -8.2440 297° West 366 421 36,000  Level FlightAware
08:41AM 55.3613 -8.3412 297° West 418 481 36,000  Level FlightAware UK
08:41AM 55.3680 -8.3660 297° West 367 422 36,000  Level FlightAware
08:41AM 55.3990 -8.4750 297° West 368 423 36,000  Level FlightAware
08:42AM 55.4300 -8.5834 297° West 422 486 36,000  Level FlightAware UK
08:42AM 55.4340 -8.5960 297° West 371 427 36,000  Level FlightAware
08:43AM 55.4640 -8.7050 296° West 372 428 36,000  Level FlightAware
08:44AM 55.4940 -8.8120 296° West 372 428 36,000  Level FlightAware
08:44AM 55.5255 -8.9242 296° West 422 486 36,000  Level FlightAware UK
08:44AM 55.5290 -8.9360 296° West 372 428 36,000  Level FlightAware
08:45AM 55.5590 -9.0450 296° West 372 428 36,000  Level FlightAware
08:46AM 55.5870 -9.1470 296° West 372 428 36,000  Level FlightAware
08:46AM 55.6200 -9.2680 296° West 372 428 36,000  Level FlightAware
08:47AM 55.6660 -9.4370 296° West 370 426 36,000  Level FlightAware
08:48AM 55.6960 -9.5470 296° West 370 426 36,000  Level FlightAware
08:49AM 55.7250 -9.6560 295° West 369 425 36,000  Level FlightAware
08:49AM 55.7580 -9.7780 296° West 365 420 36,000  Level FlightAware
08:50AM 55.7830 -9.8730 295° West 368 423 36,000  Level FlightAware
08:51AM 55.8190 -10.0090 295° West 364 419 36,000  Level FlightAware
08:52AM 55.8480 -10.1170 296° West 363 418 36,000  Level FlightAware
08:52AM 55.8750 -10.2220 295° West 363 418 36,000  Level FlightAware
08:53AM 55.9080 -10.3460 295° West 362 417 36,000  Level FlightAware
08:54AM 55.9340 -10.4460 295° West 361 415 36,000  Level FlightAware
08:54AM 55.9690 -10.5810 295° West 362 417 36,000  Level FlightAware
08:55AM 56.0040 -10.7230 294° West 361 415 36,000  Level FlightAware
08:56AM 56.0240 -10.8080 293° West 361 415 36,000  Level FlightAware
08:57AM 56.0640 -10.9540 296° West 364 419 36,000  Level FlightAware
08:57AM 56.0920 -11.0620 295° West 363 418 36,000  Level FlightAware
08:58AM 56.1180 -11.1690 294° West 363 418 36,000  Level FlightAware
08:59AM 56.1400 -11.2560 294° West 363 418 36,000  Level FlightAware
08:59AM 56.1710 -11.3780 295° West 363 418 36,000  Level FlightAware
09:00AM 56.1980 -11.4870 294° West 363 418 36,000  Level FlightAware
09:01AM 56.2460 -11.6830 294° West 363 418 36,000  Level FlightAware
09:02AM 56.2740 -11.7970 294° West 363 418 36,000  Level FlightAware
09:03AM 56.3040 -11.9190 294° West 364 419 36,000  Level FlightAware
09:03AM 56.3300 -12.0270 294° West 364 419 36,000  Level FlightAware
09:04AM 56.3660 -12.1790 293° West 364 419 36,000  Level FlightAware
09:05AM 56.3860 -12.2640 293° West 364 419 36,000  Level FlightAware
09:06AM 56.4100 -12.3670 293° West 364 419 36,000  Level FlightAware
09:06AM 56.4310 -12.4570 293° West 364 419 36,000  Level FlightAware
09:07AM 56.4590 -12.5740 293° West 364 419 36,000  Level FlightAware
09:08AM 56.4780 -12.6580 292° West 364 419 36,000  Level FlightAware
09:08AM 56.5060 -12.7750 293° West 364 419 36,000  Level FlightAware
09:09AM 56.5260 -12.8630 292° West 364 419 36,000  Level FlightAware
09:10AM 56.5740 -13.0660 293° West 364 419 36,000  Level FlightAware
09:11AM 56.6080 -13.2120 293° West 364 419 36,000  Level FlightAware
09:12AM 56.6230 -13.2790 292° West 364 419 36,000  Level FlightAware
09:13AM 56.6500 -13.3920 294° West 364 419 36,000  Level FlightAware
09:15AM 56.6842 -13.7705 280° West  Level Estimated
09:16AM 56.7024 -13.9772 279° West  Level Estimated
09:17AM 56.7203 -14.1842 279° West  Level Estimated
09:18AM 56.7378 -14.3913 279° West  Level Estimated
09:19AM 56.7550 -14.5986 279° West  Level Estimated
09:20AM 56.7718 -14.8061 278° West  Level Estimated
09:21AM 56.7883 -15.0138 278° West  Level Estimated
09:22AM 56.8044 -15.2217 278° West  Level Estimated
09:23AM 56.8202 -15.4297 278° West  Level Estimated
09:24AM 56.8354 -15.6349 278° West  Level Estimated
09:25AM 56.8503 -15.8401 278° West  Level Estimated
09:26AM 56.8648 -16.0456 277° West  Level Estimated
09:27AM 56.8790 -16.2512 277° West  Level Estimated
09:28AM 56.9375 -16.4325 301° West  Level FlightAware Approximate
09:29AM 56.9956 -16.6143 300° West  Level FlightAware Approximate
09:30AM 57.0535 -16.7968 300° West  Level FlightAware Approximate
09:31AM 57.1111 -16.9798 300° West  Level FlightAware Approximate
09:32AM 57.1685 -17.1633 300° West  Level FlightAware Approximate
09:33AM 57.2256 -17.3475 300° West  Level FlightAware Approximate
09:34AM 57.2825 -17.5322 300° West  Level FlightAware Approximate
09:35AM 57.3390 -17.7175 300° West  Level FlightAware Approximate
09:36AM 57.3953 -17.9033 299° West  Level FlightAware Approximate
09:37AM 57.4513 -18.0897 299° West  Level FlightAware Approximate
09:38AM 57.5070 -18.2767 299° West  Level FlightAware Approximate
09:39AM 57.5625 -18.4643 299° West  Level FlightAware Approximate
09:40AM 57.6176 -18.6524 299° West  Level FlightAware Approximate
09:41AM 57.6725 -18.8411 299° West  Level FlightAware Approximate
09:42AM 57.7271 -19.0304 298° West  Level FlightAware Approximate
09:43AM 57.7815 -19.2202 298° West  Level FlightAware Approximate
09:44AM 57.8355 -19.4106 298° West  Level FlightAware Approximate
09:45AM 57.8893 -19.6016 298° West  Level FlightAware Approximate
09:46AM 57.9428 -19.7932 298° West  Level FlightAware Approximate
09:47AM 57.9959 -19.9853 298° West  Level FlightAware Approximate
09:47AM 58.0000 -20.0000 285° West 407 468 36,000  Level ETMS Enhanced Traffic Management System
09:48AM 58.0271 -20.1970 285° West  Level FlightAware Approximate
09:49AM 58.0557 -20.4073 284° West  Level FlightAware Approximate
09:50AM 58.0845 -20.6219 284° West  Level FlightAware Approximate
09:51AM 58.1129 -20.8368 284° West  Level FlightAware Approximate
09:52AM 58.1410 -21.0525 284° West  Level FlightAware Approximate
09:53AM 58.1976 -21.4504 284° West 407 468 36,000  Level FlightAware Transoceanic
09:54AM 58.2245 -21.6589 284° West 407 468 36,000  Level FlightAware Transoceanic
09:55AM 58.2511 -21.8677 283° West 407 468 36,000  Level FlightAware Transoceanic
09:56AM 58.2773 -22.0768 283° West 407 468 36,000  Level FlightAware Transoceanic
09:57AM 58.3031 -22.2862 283° West 407 468 36,000  Level FlightAware Transoceanic
09:58AM 58.3287 -22.4960 283° West 407 468 36,000  Level FlightAware Transoceanic
09:59AM 58.3538 -22.7060 283° West 407 468 36,000  Level FlightAware Transoceanic
10:00AM 58.3787 -22.9163 283° West 407 468 36,000  Level FlightAware Transoceanic
10:01AM 58.4031 -23.1269 282° West 407 468 36,000  Level FlightAware Transoceanic
10:02AM 58.4273 -23.3379 282° West 407 468 36,000  Level FlightAware Transoceanic
10:03AM 58.4511 -23.5490 282° West 407 468 36,000  Level FlightAware Transoceanic
10:04AM 58.4745 -23.7605 282° West 407 468 36,000  Level FlightAware Transoceanic
10:05AM 58.4976 -23.9723 282° West 407 468 36,000  Level FlightAware Transoceanic
10:06AM 58.5204 -24.1843 282° West 407 468 36,000  Level FlightAware Transoceanic
10:07AM 58.5428 -24.3967 281° West 407 468 36,000  Level FlightAware Transoceanic
10:08AM 58.5648 -24.6092 281° West 407 468 36,000  Level FlightAware Transoceanic
10:09AM 58.5865 -24.8221 281° West 407 468 36,000  Level FlightAware Transoceanic
10:10AM 58.6078 -25.0352 281° West 407 468 36,000  Level FlightAware Transoceanic
10:11AM 58.6288 -25.2486 281° West 407 468 36,000  Level FlightAware Transoceanic
10:12AM 58.6495 -25.4622 280° West 407 468 36,000  Level FlightAware Transoceanic
10:13AM 58.6698 -25.6761 280° West 407 468 36,000  Level FlightAware Transoceanic
10:14AM 58.6897 -25.8902 280° West 407 468 36,000  Level FlightAware Transoceanic
10:15AM 58.7093 -26.1045 280° West 407 468 36,000  Level FlightAware Transoceanic
10:16AM 58.7285 -26.3192 280° West 407 468 36,000  Level FlightAware Transoceanic
10:17AM 58.7473 -26.5340 280° West 407 468 36,000  Level FlightAware Transoceanic
10:18AM 58.7658 -26.7491 279° West 407 468 36,000  Level FlightAware Transoceanic
10:19AM 58.7840 -26.9644 279° West 407 468 36,000  Level FlightAware Transoceanic
10:20AM 58.8018 -27.1799 279° West 407 468 36,000  Level FlightAware Transoceanic
10:21AM 58.8192 -27.3956 279° West 407 468 36,000  Level FlightAware Transoceanic
10:22AM 58.8362 -27.6116 279° West 407 468 36,000  Level FlightAware Transoceanic
10:23AM 58.8529 -27.8277 278° West 407 468 36,000  Level FlightAware Transoceanic
10:24AM 58.8693 -28.0441 278° West 407 468 36,000  Level FlightAware Transoceanic
10:25AM 58.8853 -28.2607 278° West 407 468 36,000  Level FlightAware Transoceanic
10:26AM 58.9009 -28.4774 278° West 407 468 36,000  Level FlightAware Transoceanic
10:27AM 58.9161 -28.6944 278° West 407 468 36,000  Level FlightAware Transoceanic
10:28AM 58.9310 -28.9116 277° West 407 468 36,000  Level FlightAware Transoceanic
10:29AM 58.9455 -29.1289 277° West 407 468 36,000  Level FlightAware Transoceanic
10:30AM 58.9597 -29.3464 277° West 407 468 36,000  Level FlightAware Transoceanic
10:31AM 58.9735 -29.5641 277° West 407 468 36,000  Level FlightAware Transoceanic
10:32AM 58.9869 -29.7820 277° West 407 468 36,000  Level FlightAware Transoceanic
10:33AM 59.0005 -30.0082 277° West  Level FlightAware Approximate
10:34AM 59.0006 -30.0165 274° West  Level FlightAware Approximate
10:35AM 59.0092 -30.2437 274° West  Level FlightAware Approximate
10:36AM 59.0173 -30.4710 274° West  Level FlightAware Approximate
10:37AM 59.0251 -30.6985 274° West  Level FlightAware Approximate
10:38AM 59.0324 -30.9260 274° West  Level FlightAware Approximate
10:38AM 59.0000 -30.0000 274° West 402 463 36,000  Level ETMS Enhanced Traffic Management System
10:39AM 59.0394 -31.1537 273° West  Level FlightAware Approximate
10:40AM 59.0459 -31.3814 273° West  Level FlightAware Approximate
10:41AM 59.0521 -31.6077 273° West  Level FlightAware Approximate
10:42AM 59.0578 -31.8342 273° West  Level FlightAware Approximate
10:43AM 59.0631 -32.0607 273° West  Level FlightAware Approximate
10:44AM 59.0655 -32.1703 272° West 402 463 36,000  Level FlightAware Transoceanic
10:45AM 59.0701 -32.3877 272° West 402 463 36,000  Level FlightAware Transoceanic
10:46AM 59.0743 -32.6053 272° West 402 463 36,000  Level FlightAware Transoceanic
10:47AM 59.0781 -32.8228 272° West 402 463 36,000  Level FlightAware Transoceanic
10:48AM 59.0816 -33.0404 272° West 402 463 36,000  Level FlightAware Transoceanic
10:49AM 59.0847 -33.2580 271° West 402 463 36,000  Level FlightAware Transoceanic
10:50AM 59.0874 -33.4757 271° West 402 463 36,000  Level FlightAware Transoceanic
10:51AM 59.0898 -33.6934 271° West 402 463 36,000  Level FlightAware Transoceanic
10:52AM 59.0918 -33.9111 271° West 402 463 36,000  Level FlightAware Transoceanic
10:53AM 59.0934 -34.1289 271° West 402 463 36,000  Level FlightAware Transoceanic
10:54AM 59.0947 -34.3466 271° West 402 463 36,000  Level FlightAware Transoceanic
10:55AM 59.0956 -34.5644 270° West 402 463 36,000  Level FlightAware Transoceanic
10:56AM 59.0962 -34.7822 270° West 402 463 36,000  Level FlightAware Transoceanic
10:57AM 59.0964 -35.0000 270° West 402 463 36,000  Level FlightAware Transoceanic
10:58AM 59.0962 -35.2178 270° West 402 463 36,000  Level FlightAware Transoceanic
10:59AM 59.0956 -35.4356 270° West 402 463 36,000  Level FlightAware Transoceanic
11:00AM 59.0947 -35.6534 269° West 402 463 36,000  Level FlightAware Transoceanic
11:01AM 59.0934 -35.8711 269° West 402 463 36,000  Level FlightAware Transoceanic
11:02AM 59.0918 -36.0889 269° West 402 463 36,000  Level FlightAware Transoceanic
11:02AM 59.1000 -35.8167 268° West 410 472 36,000  Level Gander Center
11:03AM 59.0898 -36.3066 269° West 402 463 36,000  Level FlightAware Transoceanic
11:03AM 59.1167 -36.0500 278° West 420 483 36,000  Level Gander Center
11:04AM 59.0874 -36.5243 269° West 402 463 36,000  Level FlightAware Transoceanic
11:04AM 59.1000 -36.2500 261° West 420 483 36,000  Level Gander Center
11:05AM 59.0847 -36.7420 269° West 402 463 36,000  Level FlightAware Transoceanic
11:05AM 59.1167 -36.4833 278° West 420 483 36,000  Level Gander Center
11:06AM 59.0816 -36.9596 268° West 402 463 36,000  Level FlightAware Transoceanic
11:06AM 59.1000 -36.7000 262° West 420 483 36,000  Level Gander Center
11:07AM 59.0781 -37.1772 268° West 402 463 36,000  Level FlightAware Transoceanic
11:07AM 59.1000 -36.9500 270° West 420 483 36,000  Level Gander Center
11:08AM 59.0743 -37.3947 268° West 402 463 36,000  Level FlightAware Transoceanic
11:08AM 59.1000 -37.1833 270° West 430 495 36,000  Level Gander Center
11:09AM 59.1000 -37.3833 270° West 430 495 36,000  Level Gander Center
11:10AM 59.0833 -37.6333 263° West 430 495 36,000  Level Gander Center
11:11AM 59.0833 -37.8333 270° West 430 495 36,000  Level Gander Center
11:12AM 59.0833 -38.0833 270° West 430 495 36,000  Level Gander Center
11:13AM 59.0667 -38.3167 262° West 430 495 36,000  Level Gander Center
11:14AM 59.0667 -38.5167 270° West 430 495 36,000  Level Gander Center
11:15AM 59.0667 -38.7667 270° West 430 495 36,000  Level Gander Center
11:16AM 59.0500 -39.0000 262° West 430 495 36,000  Level Gander Center
11:17AM 59.0500 -39.2333 270° West 430 495 36,000  Level Gander Center
11:18AM 59.0333 -39.4500 262° West 430 495 36,000  Level Gander Center
11:19AM 59.0333 -39.7000 270° West 440 506 36,000  Level Gander Center
11:20AM 59.0167 -39.9333 262° West 440 506 36,000  Level Gander Center
11:21AM 58.9833 -40.1667 255° West 440 506 36,000  Level Gander Center
11:22AM 59.0000 -40.0000 254° West 433 498 36,000  Level ETMS Enhanced Traffic Management System
11:22AM 58.9500 -40.3833 254° West 440 506 36,000  Level Gander Center
11:23AM 58.9167 -40.6000 253° West 440 506 36,000  Level Gander Center
11:24AM 58.8833 -40.8167 254° West 450 518 36,000  Level Gander Center
11:25AM 58.8500 -41.0333 254° West 450 518 36,000  Level Gander Center
11:26AM 58.8000 -41.3000 250° West 450 518 36,000  Level Gander Center
11:27AM 58.7667 -41.5167 254° West 460 529 36,000  Level Gander Center
11:28AM 58.7333 -41.7333 254° West 460 529 36,000  Level Gander Center
11:29AM 58.7000 -41.9833 256° West 460 529 36,000  Level Gander Center
11:30AM 58.6500 -42.2167 248° West 460 529 36,000  Level Gander Center
11:31AM 58.6167 -42.4333 254° West 460 529 36,000  Level Gander Center
11:32AM 58.5833 -42.6833 256° West 460 529 36,000  Level Gander Center
11:33AM 58.5333 -42.9000 246° West 450 518 36,000  Level Gander Center
11:34AM 58.5000 -43.1167 254° West 450 518 36,000  Level Gander Center
11:35AM 58.4500 -43.3333 246° West 450 518 36,000  Level Gander Center
11:36AM 58.4167 -43.5833 256° West 450 518 36,000  Level Gander Center
11:37AM 58.3667 -43.7667 243° Southwest 450 518 36,000  Level Gander Center
11:38AM 58.3333 -44.0167 256° West 450 518 36,000  Level Gander Center
11:39AM 58.2833 -44.2333 246° West 450 518 36,000  Level Gander Center
11:40AM 58.2333 -44.4833 249° West 450 518 36,000  Level Gander Center
11:41AM 58.2000 -44.6500 249° West 460 529 36,000  Level Gander Center
11:42AM 58.1667 -44.9000 256° West 460 529 36,000  Level Gander Center
11:43AM 58.1167 -45.1167 246° West 460 529 36,000  Level Gander Center
11:44AM 58.0833 -45.3167 253° West 460 529 36,000  Level Gander Center
11:45AM 58.0167 -45.5667 243° Southwest 460 529 36,000  Level Gander Center
11:46AM 57.9833 -45.7833 254° West 460 529 36,000  Level Gander Center
11:47AM 57.9333 -46.0000 247° West 450 518 36,000  Level Gander Center
11:48AM 57.9000 -46.2333 255° West 450 518 36,000  Level Gander Center
11:49AM 57.8333 -46.4500 240° Southwest 450 518 36,000  Level Gander Center
11:50AM 57.7833 -46.6500 245° Southwest 450 518 36,000  Level Gander Center
11:51AM 57.7500 -46.8667 254° West 450 518 36,000  Level Gander Center
11:52AM 57.7000 -47.0667 245° Southwest 450 518 36,000  Level Gander Center
11:53AM 57.6667 -47.3167 256° West 450 518 36,000  Level Gander Center
11:54AM 57.6000 -47.5167 238° Southwest 450 518 36,000  Level Gander Center
11:55AM 57.5500 -47.7333 247° West 450 518 36,000  Level Gander Center
11:56AM 57.5000 -47.9333 245° Southwest 450 518 36,000  Level Gander Center
11:57AM 57.4667 -48.1333 253° West 450 518 36,000  Level Gander Center
11:58AM 57.4167 -48.3833 250° West 450 518 36,000  Level Gander Center
11:59AM 57.3667 -48.5833 245° Southwest 450 518 36,000  Level Gander Center
12:00PM 57.3000 -48.7833 238° Southwest 450 518 36,000  Level Gander Center
12:01PM 57.2500 -49.0000 247° West 450 518 36,000  Level Gander Center
12:02PM 57.2167 -49.2333 255° West 450 518 36,000  Level Gander Center
12:03PM 57.1667 -49.4333 245° Southwest 450 518 36,000  Level Gander Center
12:04PM 57.1167 -49.6333 245° Southwest 450 518 36,000  Level Gander Center
12:05PM 57.0500 -49.8333 239° Southwest 450 518 36,000  Level Gander Center
12:06PM 57.0167 -50.0333 253° West 450 518 36,000  Level Gander Center
12:07PM 56.9833 -50.2500 254° West 450 518 36,000  Level Gander Center
12:08PM 56.9333 -50.4500 245° Southwest 450 518 36,000  Level Gander Center
12:10PM 57.0000 -50.0000 252° West 454 522 36,000  Level ETMS Enhanced Traffic Management System
12:16PM 56.5928 -52.1833 250° West 454 522 36,000  Level FlightAware Transoceanic
12:17PM 56.5500 -52.3989 250° West 454 522 36,000  Level FlightAware Transoceanic
12:18PM 56.5068 -52.6141 250° West 454 522 36,000  Level FlightAware Transoceanic
12:19PM 56.4632 -52.8288 250° West 454 522 36,000  Level FlightAware Transoceanic
12:20PM 56.4193 -53.0430 250° West 454 522 36,000  Level FlightAware Transoceanic
12:21PM 56.3750 -53.2568 249° West 454 522 36,000  Level FlightAware Transoceanic
12:22PM 56.3304 -53.4700 249° West 454 522 36,000  Level FlightAware Transoceanic
12:23PM 56.2854 -53.6827 249° West 454 522 36,000  Level FlightAware Transoceanic
12:24PM 56.2400 -53.8949 249° West 454 522 36,000  Level FlightAware Transoceanic
12:25PM 56.1943 -54.1066 249° West 454 522 36,000  Level FlightAware Transoceanic
12:26PM 56.1482 -54.3178 249° West 454 522 36,000  Level FlightAware Transoceanic
12:27PM 56.1017 -54.5285 248° West 454 522 36,000  Level FlightAware Transoceanic
12:28PM 56.0549 -54.7387 248° West 454 522 36,000  Level FlightAware Transoceanic
12:29PM 56.0077 -54.9484 248° West 454 522 36,000  Level FlightAware Transoceanic
12:30PM 55.9602 -55.1576 248° West 454 522 36,000  Level FlightAware Transoceanic
12:31PM 55.9123 -55.3662 248° West 454 522 36,000  Level FlightAware Transoceanic
12:32PM 55.8641 -55.5743 247° West 454 522 36,000  Level FlightAware Transoceanic
12:33PM 55.8155 -55.7820 247° West 454 522 36,000  Level FlightAware Transoceanic
12:34PM 55.7665 -55.9890 247° West 454 522 36,000  Level FlightAware Transoceanic
12:34PM 55.7833 -55.8667 240° Southwest 430 495 36,000  Level Gander Center
12:35PM 55.7172 -56.1956 247° West 454 522 36,000  Level FlightAware Transoceanic
12:35PM 55.7500 -56.0500 252° West 430 495 36,000  Level Gander Center
12:36PM 55.6676 -56.4017 247° West 454 522 36,000  Level FlightAware Transoceanic
12:36PM 55.7000 -56.2333 244° Southwest 430 495 36,000  Level Gander Center
12:37PM 55.6176 -56.6072 247° West 454 522 36,000  Level FlightAware Transoceanic
12:37PM 55.6500 -56.4500 248° West 430 495 36,000  Level Gander Center
12:38PM 55.5673 -56.8122 246° West 454 522 36,000  Level FlightAware Transoceanic
12:38PM 55.6000 -56.6333 244° Southwest 440 506 36,000  Level Gander Center
12:39PM 55.5109 -56.9842 240° Southwest  Level FlightAware Approximate
12:39PM 55.5000 -56.8333 229° Southwest 440 506 36,000  Level Gander Center
12:40PM 55.4500 -56.9833 240° Southwest 440 506 36,000  Level Gander Center
12:41PM 55.3667 -57.1667 231° Southwest 440 506 36,000  Level Gander Center
12:42PM 55.2833 -57.3500 231° Southwest 450 518 36,000  Level Gander Center
12:43PM 55.2167 -57.5000 232° Southwest 450 518 36,000  Level Gander Center
12:44PM 55.1333 -57.6833 232° Southwest 450 518 36,000  Level Gander Center
12:45PM 55.0500 -57.8667 232° Southwest 440 506 36,000  Level Gander Center
12:46PM 54.9667 -58.0167 226° Southwest 440 506 36,000  Level Gander Center
12:47PM 54.9167 -58.1667 240° Southwest 430 495 36,000  Level Gander Center
12:48PM 54.8333 -58.3500 232° Southwest 430 495 36,100 480 Climbing Gander Center
12:49PM 54.7500 -58.5000 226° Southwest 440 506 37,000 900 Climbing Gander Center
12:50PM 54.6667 -58.6833 232° Southwest 430 495 37,900 600 Climbing Gander Center
12:51PM 54.6333 -58.7667 235° Southwest 430 495 38,000 60 Climbing Moncton Center
12:51PM 54.5833 -58.8833 234° Southwest 440 506 38,000  Level Gander Center
12:52PM 54.5000 -59.0333 226° Southwest 440 506 38,000  Level Gander Center
12:53PM 54.4167 -59.2167 232° Southwest 440 506 38,000  Level Gander Center
12:54PM 54.3667 -59.3000 224° Southwest 440 506 38,000  Level Gander Center
12:55PM 54.2833 -59.4833 232° Southwest 440 506 38,000  Level Gander Center
12:56PM 54.2000 -59.6167 223° Southwest 440 506 38,000  Level Gander Center
12:57PM 54.1167 -59.8000 232° Southwest 440 506 38,000  Level Gander Center
12:58PM 54.0333 -59.9500 227° Southwest 440 506 38,000  Level Gander Center
12:59PM 53.9667 -60.1167 236° Southwest 440 506 38,000  Level Gander Center
01:00PM 53.9000 -60.2667 233° Southwest 440 506 38,000  Level Gander Center
01:01PM 53.8167 -60.4333 230° Southwest 440 506 38,000  Level Gander Center
01:02PM 53.7333 -60.5833 227° Southwest 440 506 38,000  Level Gander Center
01:03PM 53.6500 -60.7500 230° Southwest 440 506 38,000  Level Gander Center
01:04PM 53.5667 -60.8833 224° Southwest 440 506 38,000  Level Gander Center
01:05PM 53.4833 -61.0500 230° Southwest 430 495 38,000  Level Gander Center
01:06PM 53.4167 -61.2000 233° Southwest 430 495 38,000  Level Gander Center
01:07PM 53.3333 -61.3667 230° Southwest 430 495 38,000  Level Gander Center
01:08PM 53.2500 -61.5000 224° Southwest 430 495 38,000  Level Gander Center
01:09PM 53.1833 -61.6500 233° Southwest 430 495 38,000  Level Gander Center
01:10PM 53.1000 -61.7833 224° Southwest 430 495 38,000  Level Gander Center
01:11PM 53.0167 -61.9500 230° Southwest 430 495 38,000  Level Gander Center
01:12PM 52.9333 -62.0833 224° Southwest 430 495 38,000  Level Gander Center
01:13PM 52.8500 -62.2167 224° Southwest 430 495 38,000  Level Gander Center
01:14PM 52.7667 -62.3833 230° Southwest 430 495 38,000  Level Gander Center
01:15PM 52.6833 -62.5167 224° Southwest 420 483 38,000  Level Gander Center
01:16PM 52.6000 -62.6667 228° Southwest 420 483 38,000  Level Gander Center
01:17PM 52.5833 -62.7500 252° West 420 483 38,000  Level Moncton Center
01:18PM 52.5000 -62.8833 224° Southwest 420 483 38,000  Level Moncton Center
01:19PM 52.4167 -63.0333 228° Southwest 420 483 38,000 60 Level Moncton Center
01:20PM 52.3333 -63.1667 224° Southwest 420 483 38,200 420 Climbing Moncton Center
01:21PM 52.2500 -63.3000 224° Southwest 420 483 38,900 360 Climbing Moncton Center
01:22PM 52.1667 -63.4500 228° Southwest 420 483 39,000  Climbing Moncton Center
01:23PM 52.0833 -63.5833 225° Southwest 420 483 39,000  Level Moncton Center
01:24PM 52.0000 -63.7167 225° Southwest 420 483 39,000  Level Moncton Center
01:25PM 51.9333 -63.8500 231° Southwest 420 483 39,000  Level Moncton Center
01:26PM 51.8500 -64.0167 231° Southwest 430 495 39,000  Level Moncton Center
01:27PM 51.7667 -64.1500 225° Southwest 430 495 39,000  Level Moncton Center
01:28PM 51.6833 -64.2833 225° Southwest 430 495 39,000  Level Moncton Center
01:29PM 51.6000 -64.4167 225° Southwest 430 495 39,000  Level Moncton Center
01:30PM 51.5167 -64.5667 228° Southwest 430 495 39,000  Level Moncton Center
01:31PM 51.4333 -64.7000 225° Southwest 430 495 39,000  Level Moncton Center
01:32PM 51.3500 -64.8333 225° Southwest 420 483 39,000  Level Moncton Center
01:33PM 51.2667 -64.9667 225° Southwest 420 483 39,000  Level Moncton Center
01:34PM 51.1833 -65.0833 221° Southwest 420 483 39,000  Level Moncton Center
01:35PM 51.1000 -65.2167 225° Southwest 420 483 39,000  Level Moncton Center
01:36PM 51.0333 -65.3500 232° Southwest 420 483 39,000  Level Moncton Center
01:37PM 50.9500 -65.4833 225° Southwest 420 483 39,000  Level Moncton Center
01:38PM 50.8500 -65.6167 220° Southwest 410 472 39,000  Level Moncton Center
01:39PM 50.7667 -65.7500 225° Southwest 410 472 39,000  Level Moncton Center
01:40PM 50.6833 -65.8833 225° Southwest 410 472 39,000  Level Moncton Center
01:41PM 50.6167 -66.0000 228° Southwest 410 472 39,000  Level Moncton Center
01:42PM 50.5333 -66.1333 226° Southwest 410 472 39,000  Level Moncton Center
01:43PM 50.4500 -66.2667 226° Southwest 410 472 39,000  Level Moncton Center
01:44PM 50.3667 -66.3833 222° Southwest 410 472 39,000  Level Moncton Center
01:45PM 50.3000 -66.5000 228° Southwest 410 472 39,000  Level Moncton Center
01:46PM 50.1833 -66.6667 222° Southwest 410 472 39,000  Level Moncton Center
01:47PM 50.1333 -66.7167 213° Southwest 410 472 39,000  Level Moncton Center
01:47PM 50.0667 -66.8000 219° Southwest 410 472 39,000  Level Montreal Center
01:48PM 50.0000 -66.9167 228° Southwest 410 472 39,000  Level Montreal Center
01:49PM 49.9000 -67.0500 221° Southwest 410 472 39,000  Level Montreal Center
01:50PM 49.8333 -67.1667 228° Southwest 410 472 39,000 180 Level Montreal Center
01:54PM 49.5333 -67.6167 224° Southwest 400 460 40,000  Climbing Moncton Center
01:55PM 49.4833 -67.7500 240° Southwest 400 460 39,000 -660 Descending Moncton Center
01:55PM 49.4167 -67.7833 198° South 400 460 39,000 -120 Level Montreal Center
01:56PM 49.3333 -67.8833 218° Southwest 400 460 38,900  Descending Montreal Center
01:57PM 49.2500 -68.0167 226° Southwest 390 449 39,000  Climbing Montreal Center
01:58PM 49.2000 -68.1333 237° Southwest 390 449 39,000  Level Montreal Center
01:59PM 49.1167 -68.2833 230° Southwest 400 460 39,000  Level Montreal Center
02:00PM 49.0500 -68.3833 225° Southwest 400 460 39,000  Level Montreal Center
02:01PM 48.9500 -68.5167 221° Southwest 400 460 39,000  Level Montreal Center
02:07PM 48.5080 -69.1880 221° Southwest 405 466 39,000  Level FlightAware
02:07PM 48.4540 -69.2650 223° Southwest 406 467 39,000  Level FlightAware
02:08PM 48.3900 -69.3540 223° Southwest 391 450 39,000  Level FlightAware
02:09PM 48.3420 -69.4200 222° Southwest 375 432 39,000  Level FlightAware
02:10PM 48.2600 -69.5350 223° Southwest 366 421 39,000  Level FlightAware
02:11PM 48.2020 -69.6160 223° Southwest 382 440 39,000  Level FlightAware
02:11PM 48.1490 -69.6890 223° Southwest 380 437 39,000  Level FlightAware
02:12PM 48.0950 -69.7630 222° Southwest 383 441 39,000  Level FlightAware
02:13PM 48.0350 -69.8450 222° Southwest 383 441 39,000  Level FlightAware
02:13PM 47.9870 -69.9110 223° Southwest 373 429 39,000  Level FlightAware
02:14PM 47.9320 -69.9860 222° Southwest 368 423 39,000  Level FlightAware
02:15PM 47.8790 -70.0580 222° Southwest 368 423 39,000  Level FlightAware
02:16PM 47.8230 -70.1340 222° Southwest 370 426 39,000  Level FlightAware
02:16PM 47.7660 -70.2110 222° Southwest 371 427 39,000  Level FlightAware
02:17PM 47.6970 -70.3050 223° Southwest 373 429 39,000  Level FlightAware
02:18PM 47.6420 -70.3780 222° Southwest 382 440 39,000  Level FlightAware
02:19PM 47.5890 -70.4490 222° Southwest 385 443 39,000  Level FlightAware
02:19PM 47.5370 -70.5190 222° Southwest 387 445 39,000  Level FlightAware
02:20PM 47.4580 -70.6240 222° Southwest 390 449 39,000  Level FlightAware
02:21PM 47.3830 -70.7230 222° Southwest 393 452 39,000  Level FlightAware
02:22PM 47.3220 -70.8030 222° Southwest 397 457 39,000  Level FlightAware
02:23PM 47.2670 -70.8760 222° Southwest 400 460 39,000  Level FlightAware
02:23PM 47.2060 -70.9570 222° Southwest 400 460 39,000  Level FlightAware
02:24PM 47.1580 -71.0200 222° Southwest 400 460 39,000  Level FlightAware
02:25PM 47.0960 -71.1000 221° Southwest 400 460 39,000  Level FlightAware
02:25PM 47.0350 -71.1800 222° Southwest 402 463 39,000  Level FlightAware
02:26PM 46.9790 -71.2520 221° Southwest 403 464 39,000  Level FlightAware
02:27PM 46.9150 -71.3350 222° Southwest 405 466 39,000  Level FlightAware
02:27PM 46.8680 -71.3950 221° Southwest 394 453 39,000  Level FlightAware
02:28PM 46.8090 -71.4710 221° Southwest 388 447 39,000  Level FlightAware
02:29PM 46.7470 -71.5500 221° Southwest 386 444 39,000  Level FlightAware
02:30PM 46.6930 -71.6200 222° Southwest 386 444 39,000 -840 Level FlightAware
02:30PM 46.6400 -71.6870 221° Southwest 394 453 37,900 -1,680 Descending FlightAware
02:31PM 46.5830 -71.7580 221° Southwest 405 466 36,800 -1,500 Descending FlightAware
02:32PM 46.5120 -71.8450 220° Southwest 403 464 35,700 -1,380 Descending FlightAware
02:32PM 46.4550 -71.9140 220° Southwest 407 468 34,800 -1,620 Descending FlightAware
02:33PM 46.3960 -71.9850 220° Southwest 417 480 33,600 -1,680 Descending FlightAware
02:34PM 46.3380 -72.0560 220° Southwest 419 482 32,600 -1,980 Descending FlightAware
02:35PM 46.2710 -72.1360 220° Southwest 413 475 30,800 -2,520 Descending FlightAware
02:35PM 46.2140 -72.2050 220° Southwest 404 465 29,100 -2,580 Descending FlightAware
02:36PM 46.1500 -72.2810 219° Southwest 394 453 27,200 -2,160 Descending FlightAware
02:37PM 46.0950 -72.3480 220° Southwest 374 430 26,100 -1,740 Descending FlightAware
02:37PM 46.0460 -72.4070 220° Southwest 362 417 24,900 -2,100 Descending FlightAware
02:38PM 45.9870 -72.4760 219° Southwest 355 409 23,200 -2,160 Descending FlightAware
02:39PM 45.9370 -72.5360 220° Southwest 346 398 21,900 -1,620 Descending FlightAware
02:39PM 45.8890 -72.5930 220° Southwest 326 375 21,100 -720 Descending FlightAware
02:40PM 45.8440 -72.6450 219° Southwest 311 358 21,000 -480 Descending FlightAware
02:41PM 45.7940 -72.7040 219° Southwest 313 360 20,500 -1,140 Descending FlightAware
02:42PM 45.7500 -72.7680 225° Southwest 301 346 19,300 -1,500 Descending FlightAware
02:42PM 45.7430 -72.7960 250° West 299 344 19,000 -1,860 Descending FlightAware
02:43PM 45.7330 -72.8810 260° West 293 337 17,500 -1,980 Descending FlightAware
02:43PM 45.7250 -72.9610 262° West 288 331 16,200 -1,020 Descending FlightAware
02:44PM 45.7170 -73.0390 262° West 283 326 16,100 -900 Descending FlightAware
02:45PM 45.7280 -73.1330 280° West 285 328 14,800 -1,560 Descending FlightAware
02:45PM 45.7410 -73.1450 327° Northwest 295 339 14,400 -2,160 Descending FlightAware
02:45PM 45.7620 -73.1520 347° North 309 356 13,800 -1,860 Descending FlightAware
02:46PM 45.7980 -73.1340 19° North 324 373 13,100 -1,620 Descending FlightAware
02:46PM 45.8140 -73.1090 47° Northeast 329 379 12,700 -1,620 Descending FlightAware
02:46PM 45.8210 -73.0810 70° East 331 381 12,300 -1,440 Descending FlightAware
02:47PM 45.8190 -73.0360 94° East 327 376 11,700 -1,500 Descending FlightAware
02:47PM 45.8020 -73.0000 124° Southeast 320 368 11,300 -1,800 Descending FlightAware
02:47PM 45.7690 -72.9830 160° South 301 346 10,600 -1,680 Descending FlightAware
02:48PM 45.7330 -73.0050 203° Southwest 276 318 9,800 -1,620 Descending FlightAware
02:48PM 45.7240 -73.0210 231° Southwest 269 310 9,500 -1,440 Descending FlightAware
02:48PM 45.7160 -73.0500 248° West 262 302 9,100 -1,500 Descending FlightAware
02:49PM 45.7110 -73.0950 261° West 263 303 8,400 -1,500 Descending FlightAware
02:49PM 45.7060 -73.1260 257° West 262 302 8,000 -1,500 Descending FlightAware
02:49PM 45.6980 -73.1700 255° West 261 300 7,300 -1,500 Descending FlightAware
02:50PM 45.6900 -73.2190 257° West 260 299 6,600 -1,320 Descending FlightAware
02:50PM 45.6820 -73.2670 257° West 252 290 6,100 -1,140 Descending FlightAware
02:51PM 45.6760 -73.3070 258° West 247 284 5,600 -1,200 Descending FlightAware
02:51PM 45.6680 -73.3540 256° West 242 278 5,000 -1,140 Descending FlightAware
02:52PM 45.6610 -73.3980 257° West 232 267 4,500 -960 Descending FlightAware
02:52PM 45.6560 -73.4290 257° West 226 260 4,200 -900 Descending FlightAware
02:53PM 45.6500 -73.4660 257° West 219 252 3,800 -960 Descending FlightAware
02:53PM 45.6450 -73.4940 256° West 212 244 3,500 -780 Descending FlightAware
02:53PM 45.6420 -73.5110 256° West 208 239 3,400 -660 Descending FlightAware
02:53PM 45.6370 -73.5310 250° West 203 234 3,200 -660 Descending FlightAware
02:54PM 45.6300 -73.5420 228° Southwest 194 223 3,100  Descending FlightAware
02:54PM 45.6110 -73.5680 224° Southwest 188 216 3,200 60 Climbing FlightAware
02:55PM 45.5950 -73.5900 224° Southwest 183 211 3,200 -480 Level FlightAware
02:55PM 45.5850 -73.6030 222° Southwest 176 203 2,900 -960 Descending FlightAware
02:55PM 45.5680 -73.6250 222° Southwest 169 194 2,500 -900 Descending FlightAware
02:56PM 45.5610 -73.6330 219° Southwest 169 194 2,300 -900 Descending FlightAware
02:56PM 45.5450 -73.6550 224° Southwest 164 189 1,900 -900 Descending FlightAware
02:56PM 45.5310 -73.6740 224° Southwest 151 174 1,500 -840 Descending FlightAware
02:57PM 45.5250 -73.6820 223° Southwest 150 173 1,400 -720 Descending FlightAware
02:57PM 45.5100 -73.7010 222° Southwest 136 157 1,000 -780 Descending FlightAware
02:58PM 45.4980 -73.7160 221° Southwest 136 157 700 -660 Descending FlightAware
02:58PM 45.4760 -73.7450 223° Southwest 115 132 -960 Descending FlightAware
02:59PM 45.4710 -73.7530 228° Southwest 48 55  Level FlightAware
02:59PM 45.4680 -73.7560 215° Southwest 21 24  Level FlightAware
03:00PM 45.4660 -73.7560 180° South 20 23  Level FlightAware
03:00PM 45.4640 -73.7570 199° South 22 25  Level FlightAware
03:00PM 45.4620 -73.7570 180° South 12 14  Level FlightAware
03:01PM 45.4610 -73.7570 180° South 8 9  Level FlightAware